Time;durP1;ratioP1;P1;durP2;ratioP2;P2;SDS_P1;SDS_P2;PMS_P1;PMS_P2;Temp;Humidity;BMP_temperature;BMP_pressure;BME280_temperature;BME280_humidity;BME280_pressure;Samples;Min_cycle;Max_cycle;Signal;HPM_P1;HPM_P2
2023/09/29 00:01:33;;;;;;;4.70;4.37;;;13.50;99.90;;;;;;5013472;28;20461;-63
2023/09/29 00:04:01;;;;;;;4.33;3.77;;;13.50;99.90;;;;;;5012366;28;20454;-63
2023/09/29 00:06:28;;;;;;;4.50;4.20;;;13.50;99.90;;;;;;5012530;28;20446;-63
2023/09/29 00:08:55;;;;;;;5.20;3.97;;;13.40;99.90;;;;;;5013429;28;20818;-63
2023/09/29 00:11:22;;;;;;;4.30;4.10;;;13.40;99.90;;;;;;5013440;28;20447;-63
2023/09/29 00:13:48;;;;;;;4.77;4.37;;;13.40;99.90;;;;;;5013000;28;20446;-63
2023/09/29 00:16:15;;;;;;;4.47;3.63;;;13.40;99.90;;;;;;5012847;28;20489;-63
2023/09/29 00:18:42;;;;;;;4.20;3.80;;;13.40;99.90;;;;;;5013422;28;20489;-63
2023/09/29 00:21:11;;;;;;;4.80;4.50;;;13.40;99.90;;;;;;5013217;28;20457;-63
2023/09/29 00:23:37;;;;;;;3.83;3.50;;;13.40;99.90;;;;;;5012689;28;20451;-63
2023/09/29 00:26:05;;;;;;;4.73;4.33;;;13.30;99.90;;;;;;5013051;28;20446;-63
2023/09/29 00:28:32;;;;;;;4.83;4.27;;;13.30;99.90;;;;;;5012914;28;20458;-63
2023/09/29 00:30:59;;;;;;;3.70;3.40;;;13.30;99.90;;;;;;5013074;28;20529;-63
2023/09/29 00:33:26;;;;;;;6.90;3.93;;;13.30;99.90;;;;;;5012843;28;20453;-63
2023/09/29 00:35:53;;;;;;;4.83;4.23;;;13.30;99.90;;;;;;5012648;28;20505;-63
2023/09/29 00:38:21;;;;;;;3.80;3.50;;;13.30;99.90;;;;;;5012827;28;20470;-63
2023/09/29 00:40:48;;;;;;;5.23;3.80;;;13.30;99.90;;;;;;5012831;28;20450;-63
2023/09/29 00:43:16;;;;;;;4.67;3.47;;;13.30;99.90;;;;;;5012183;28;20804;-64
2023/09/29 00:45:43;;;;;;;4.30;3.87;;;13.40;99.90;;;;;;5012366;28;20438;-63
2023/09/29 00:48:12;;;;;;;4.53;4.13;;;13.30;99.90;;;;;;5011983;28;20477;-63
2023/09/29 00:50:40;;;;;;;4.60;4.20;;;13.30;99.90;;;;;;5012202;28;20547;-63
2023/09/29 00:53:14;;;;;;;4.63;4.23;;;13.30;99.90;;;;;;5011904;28;20533;-63
2023/09/29 00:55:45;;;;;;;3.70;3.40;;;13.40;99.90;;;;;;5012386;28;20485;-63
2023/09/29 00:58:14;;;;;;;5.83;3.93;;;13.30;99.90;;;;;;5012166;28;20477;-63
2023/09/29 01:00:41;;;;;;;4.13;3.83;;;13.30;99.90;;;;;;5012373;28;20885;-63
2023/09/29 01:03:11;;;;;;;4.23;3.73;;;13.30;99.90;;;;;;5011978;28;20455;-64
2023/09/29 01:05:39;;;;;;;4.90;4.30;;;13.30;99.90;;;;;;5012102;28;20454;-63
2023/09/29 01:08:10;;;;;;;5.57;4.47;;;13.20;99.90;;;;;;5012103;28;20498;-63
2023/09/29 01:10:37;;;;;;;4.33;3.70;;;13.30;99.90;;;;;;5012015;28;20831;-63
2023/09/29 01:13:06;;;;;;;4.63;4.23;;;13.30;99.90;;;;;;5011760;28;20450;-63
2023/09/29 01:15:34;;;;;;;5.00;4.50;;;13.20;99.90;;;;;;5012269;28;20914;-63
2023/09/29 01:18:01;;;;;;;6.03;4.67;;;13.20;99.90;;;;;;5011684;28;20509;-63
2023/09/29 01:20:30;;;;;;;5.27;4.27;;;13.20;99.90;;;;;;5011855;28;20441;-63
2023/09/29 01:22:58;;;;;;;3.90;3.60;;;13.10;99.90;;;;;;5011623;28;20864;-63
2023/09/29 01:25:26;;;;;;;3.93;3.63;;;13.20;99.90;;;;;;5011522;28;20434;-63
2023/09/29 01:27:54;;;;;;;8.40;4.70;;;13.10;99.90;;;;;;5012040;28;20472;-62
2023/09/29 01:30:21;;;;;;;4.70;4.30;;;13.10;99.90;;;;;;5011911;28;20969;-64
2023/09/29 01:32:50;;;;;;;4.20;3.83;;;13.10;99.90;;;;;;5011720;28;20456;-63
2023/09/29 01:35:17;;;;;;;4.40;3.80;;;13.10;99.90;;;;;;5011675;28;20482;-63
2023/09/29 01:37:46;;;;;;;4.83;4.40;;;13.10;99.90;;;;;;5011317;28;20481;-63
2023/09/29 01:40:14;;;;;;;3.93;3.63;;;13.10;99.90;;;;;;5011629;28;20450;-63
2023/09/29 01:42:43;;;;;;;5.07;4.57;;;13.10;99.90;;;;;;5011226;28;21070;-63
2023/09/29 01:45:11;;;;;;;5.10;4.57;;;13.00;99.90;;;;;;5011326;28;20456;-63
2023/09/29 01:47:38;;;;;;;4.93;4.37;;;13.00;99.90;;;;;;5011469;28;20469;-63
2023/09/29 01:50:07;;;;;;;4.80;4.50;;;13.00;99.90;;;;;;5011522;28;20450;-63
2023/09/29 01:52:34;;;;;;;4.90;4.50;;;13.00;99.90;;;;;;5011205;28;20512;-63
2023/09/29 01:55:06;;;;;;;3.87;3.57;;;12.90;99.90;;;;;;5011442;28;20481;-63
2023/09/29 01:57:33;;;;;;;5.00;4.57;;;12.90;99.90;;;;;;5011466;28;20481;-64
2023/09/29 02:00:03;;;;;;;4.53;4.23;;;12.90;99.90;;;;;;5011145;28;20447;-63
2023/09/29 02:02:30;;;;;;;4.70;4.27;;;12.90;99.90;;;;;;5011014;28;20452;-64
2023/09/29 02:04:57;;;;;;;4.90;4.50;;;12.80;99.90;;;;;;5011362;28;20874;-63
2023/09/29 02:07:24;;;;;;;5.30;4.70;;;12.80;99.90;;;;;;5011414;28;20901;-63
2023/09/29 02:09:52;;;;;;;5.23;4.77;;;12.80;99.90;;;;;;5011313;28;20450;-63
2023/09/29 02:12:18;;;;;;;4.73;4.30;;;12.80;99.90;;;;;;5011308;28;20819;-63
2023/09/29 02:14:45;;;;;;;4.70;4.40;;;12.70;99.90;;;;;;5010825;28;20537;-63
2023/09/29 02:17:14;;;;;;;6.00;5.50;;;12.70;99.90;;;;;;5010971;28;20500;-63
2023/09/29 02:19:40;;;;;;;4.83;4.43;;;12.70;99.90;;;;;;5011373;28;20536;-63
2023/09/29 02:22:08;;;;;;;7.80;4.70;;;12.70;99.90;;;;;;5011277;28;20521;-63
2023/09/29 02:24:35;;;;;;;4.93;3.93;;;12.70;99.90;;;;;;5011270;28;20457;-63
2023/09/29 02:27:02;;;;;;;4.60;4.30;;;12.70;99.90;;;;;;5011004;28;20464;-63
2023/09/29 02:29:29;;;;;;;5.20;4.70;;;12.70;99.90;;;;;;5011135;28;20442;-63
2023/09/29 02:31:56;;;;;;;4.67;4.27;;;12.70;99.90;;;;;;5011002;28;20446;-63
2023/09/29 02:34:26;;;;;;;7.43;5.53;;;12.60;99.90;;;;;;5011019;28;20521;-63
2023/09/29 02:36:52;;;;;;;4.83;4.40;;;12.60;99.90;;;;;;5011088;28;20912;-63
2023/09/29 02:39:20;;;;;;;5.80;5.20;;;12.60;99.90;;;;;;5011018;28;20453;-63
2023/09/29 02:41:48;;;;;;;5.50;4.93;;;12.60;99.90;;;;;;5010874;28;20472;-63
2023/09/29 02:44:15;;;;;;;5.07;4.57;;;12.50;99.90;;;;;;5010486;28;20446;-63
2023/09/29 02:46:42;;;;;;;5.27;4.73;;;12.50;99.90;;;;;;5010634;28;20554;-63
2023/09/29 02:49:09;;;;;;;6.60;4.80;;;12.50;99.90;;;;;;5010886;28;20508;-63
2023/09/29 02:51:37;;;;;;;5.57;5.13;;;12.50;99.90;;;;;;5010551;28;20960;-63
2023/09/29 02:54:05;;;;;;;6.20;4.90;;;12.40;99.90;;;;;;5010049;28;20485;-63
2023/09/29 02:56:31;;;;;;;7.30;6.37;;;12.40;99.90;;;;;;5010701;28;20576;-63
2023/09/29 02:58:59;;;;;;;5.13;4.70;;;12.40;99.90;;;;;;5010722;28;20456;-63
2023/09/29 03:01:26;;;;;;;4.50;4.10;;;12.40;99.90;;;;;;5010837;28;20527;-63
2023/09/29 03:03:56;;;;;;;4.80;4.30;;;12.40;99.90;;;;;;5010776;28;20484;-63
2023/09/29 03:06:23;;;;;;;4.70;4.40;;;12.40;99.90;;;;;;5009481;28;20450;-64
2023/09/29 03:08:54;;;;;;;8.83;4.40;;;12.40;99.90;;;;;;5010888;28;20445;-63
2023/09/29 03:11:21;;;;;;;5.60;5.20;;;12.40;99.90;;;;;;5010690;28;20450;-63
2023/09/29 03:13:48;;;;;;;5.10;4.67;;;12.30;99.90;;;;;;5014057;28;20461;-63
2023/09/29 03:16:16;;;;;;;6.57;4.70;;;12.30;99.90;;;;;;5014242;28;20515;-63
2023/09/29 03:18:43;;;;;;;5.60;5.10;;;12.30;99.90;;;;;;5014015;28;20462;-63
2023/09/29 03:21:10;;;;;;;5.60;4.97;;;12.30;99.90;;;;;;5014464;28;20884;-63
2023/09/29 03:23:38;;;;;;;5.50;4.50;;;12.30;99.90;;;;;;5014083;28;20826;-62
2023/09/29 03:26:06;;;;;;;5.50;4.90;;;12.30;99.90;;;;;;5014102;28;20447;-63
2023/09/29 03:28:34;;;;;;;4.33;3.93;;;12.30;99.90;;;;;;5014131;28;20465;-63
2023/09/29 03:31:04;;;;;;;5.77;5.27;;;12.30;99.90;;;;;;5014062;28;20448;-63
2023/09/29 03:33:32;;;;;;;4.30;3.90;;;12.30;99.90;;;;;;5014028;28;20505;-63
2023/09/29 03:35:59;;;;;;;5.17;4.63;;;12.20;99.90;;;;;;5014137;28;20580;-63
2023/09/29 03:38:26;;;;;;;5.70;5.30;;;12.20;99.90;;;;;;5014168;28;20553;-63
2023/09/29 03:40:54;;;;;;;6.33;5.00;;;12.20;99.90;;;;;;5013999;28;20469;-62
2023/09/29 03:43:23;;;;;;;5.30;4.83;;;12.20;99.90;;;;;;5013629;28;20451;-63
2023/09/29 03:45:49;;;;;;;4.97;4.47;;;12.10;99.90;;;;;;5013693;28;20449;-63
2023/09/29 03:48:16;;;;;;;8.73;7.73;;;12.20;99.90;;;;;;5013935;28;20895;-64
2023/09/29 03:50:43;;;;;;;7.53;5.77;;;12.10;99.90;;;;;;5013870;28;20457;-63
2023/09/29 03:53:10;;;;;;;6.10;5.10;;;12.10;99.90;;;;;;5013466;28;20477;-63
2023/09/29 03:55:37;;;;;;;5.77;5.27;;;12.10;99.90;;;;;;5013627;28;20487;-64
2023/09/29 03:58:05;;;;;;;5.87;5.37;;;12.10;99.90;;;;;;5013525;28;20823;-63
2023/09/29 04:00:33;;;;;;;5.43;4.93;;;12.10;99.90;;;;;;5013411;28;20516;-63
2023/09/29 04:02:59;;;;;;;5.43;4.90;;;12.10;99.90;;;;;;5013427;28;20537;-63
2023/09/29 04:05:26;;;;;;;5.10;4.67;;;12.10;99.90;;;;;;5013485;28;20870;-63
2023/09/29 04:07:53;;;;;;;6.20;5.70;;;12.10;99.90;;;;;;5013186;28;20548;-63
2023/09/29 04:10:21;;;;;;;6.57;5.50;;;12.10;99.90;;;;;;5013588;28;20533;-63
2023/09/29 04:12:48;;;;;;;5.20;4.67;;;12.10;99.90;;;;;;5013289;28;20461;-63
2023/09/29 04:15:15;;;;;;;6.87;5.20;;;12.00;99.90;;;;;;5013215;28;20481;-64
2023/09/29 04:17:43;;;;;;;5.70;4.67;;;12.00;99.90;;;;;;5013020;28;20490;-63
2023/09/29 04:20:11;;;;;;;7.07;6.37;;;12.00;99.90;;;;;;5013090;28;20446;-63
2023/09/29 04:22:38;;;;;;;6.53;5.40;;;12.00;99.90;;;;;;5013074;28;20545;-63
2023/09/29 04:25:09;;;;;;;5.80;5.33;;;12.00;99.90;;;;;;5012121;28;20467;-64
2023/09/29 04:27:36;;;;;;;6.03;5.50;;;12.00;99.90;;;;;;5012879;28;20854;-63
2023/09/29 04:30:05;;;;;;;5.77;5.20;;;12.00;99.90;;;;;;5012865;28;20990;-63
2023/09/29 04:32:32;;;;;;;8.10;6.13;;;12.00;99.90;;;;;;5012910;28;20541;-63
2023/09/29 04:35:00;;;;;;;5.83;4.67;;;12.00;99.90;;;;;;5012900;28;20448;-63
2023/09/29 04:37:27;;;;;;;5.70;5.23;;;12.00;99.90;;;;;;5012720;28;20489;-63
2023/09/29 04:39:55;;;;;;;6.07;4.80;;;11.90;99.90;;;;;;5012634;28;20472;-62
2023/09/29 04:42:22;;;;;;;5.40;5.00;;;11.90;99.90;;;;;;5012038;28;20482;-63
2023/09/29 04:44:49;;;;;;;5.07;4.57;;;11.90;99.90;;;;;;5012419;28;20833;-63
2023/09/29 04:47:17;;;;;;;7.97;4.77;;;12.00;99.90;;;;;;5012597;28;20465;-63
2023/09/29 04:49:44;;;;;;;6.20;4.80;;;12.00;99.90;;;;;;5012656;28;20449;-63
2023/09/29 04:52:12;;;;;;;6.50;6.00;;;12.00;99.90;;;;;;5012554;28;20470;-63
2023/09/29 04:54:39;;;;;;;6.57;5.97;;;12.00;99.90;;;;;;5012190;28;20446;-63
2023/09/29 04:57:06;;;;;;;7.53;6.17;;;11.90;99.90;;;;;;5012428;28;20520;-63
2023/09/29 04:59:32;;;;;;;6.90;6.33;;;12.00;99.90;;;;;;5012463;28;20959;-63
2023/09/29 05:01:59;;;;;;;5.73;5.23;;;12.00;99.90;;;;;;5012377;28;20448;-63
2023/09/29 05:04:27;;;;;;;5.73;5.23;;;12.00;99.90;;;;;;5012040;28;20450;-63
2023/09/29 05:06:54;;;;;;;6.33;5.70;;;12.00;99.90;;;;;;5012231;28;20561;-63
2023/09/29 05:09:22;;;;;;;7.37;6.70;;;12.10;99.90;;;;;;5012071;28;20545;-63
2023/09/29 05:11:49;;;;;;;6.67;6.00;;;12.00;99.90;;;;;;5012384;28;20521;-63
2023/09/29 05:14:16;;;;;;;6.53;5.97;;;12.10;99.90;;;;;;5011907;28;20937;-64
2023/09/29 05:16:43;;;;;;;6.43;5.83;;;12.10;99.90;;;;;;5011416;28;20478;-63
2023/09/29 05:19:10;;;;;;;5.70;5.30;;;12.10;99.90;;;;;;5012039;28;20496;-64
2023/09/29 05:21:37;;;;;;;6.30;5.70;;;12.10;99.90;;;;;;5012002;28;20461;-63
2023/09/29 05:24:04;;;;;;;6.80;6.03;;;12.20;99.90;;;;;;5011910;28;20453;-63
2023/09/29 05:26:32;;;;;;;6.70;6.20;;;12.20;99.90;;;;;;5011921;28;20521;-63
2023/09/29 05:29:00;;;;;;;6.37;5.70;;;12.30;99.90;;;;;;5016944;28;20456;-63
2023/09/29 05:31:27;;;;;;;6.43;5.90;;;12.30;99.90;;;;;;5011795;28;20450;-64
2023/09/29 05:33:54;;;;;;;6.53;6.03;;;12.30;99.90;;;;;;5011449;28;20442;-64
2023/09/29 05:36:21;;;;;;;7.17;6.47;;;12.40;99.90;;;;;;5011764;28;20464;-64
2023/09/29 05:38:48;;;;;;;6.77;5.67;;;12.40;99.90;;;;;;5011947;28;20461;-64
2023/09/29 05:41:14;;;;;;;6.37;5.87;;;12.50;99.90;;;;;;5011632;28;20450;-64
2023/09/29 05:43:43;;;;;;;5.83;5.33;;;12.50;99.90;;;;;;5011383;28;20449;-64
2023/09/29 05:46:09;;;;;;;4.83;4.53;;;12.50;99.90;;;;;;5011682;28;20442;-64
2023/09/29 05:48:36;;;;;;;7.30;4.97;;;12.60;99.90;;;;;;5011497;28;20509;-63
2023/09/29 05:51:03;;;;;;;6.17;5.67;;;12.60;99.90;;;;;;5011474;28;20452;-64
2023/09/29 05:53:30;;;;;;;6.97;6.27;;;12.60;99.90;;;;;;5011350;28;20481;-64
2023/09/29 05:55:57;;;;;;;5.20;4.70;;;12.70;99.90;;;;;;5011596;28;20517;-63
2023/09/29 05:58:24;;;;;;;5.57;5.07;;;12.70;99.90;;;;;;5011424;28;20469;-64
2023/09/29 06:00:52;;;;;;;5.60;4.97;;;12.70;99.90;;;;;;5011541;28;20450;-64
2023/09/29 06:03:19;;;;;;;5.47;5.07;;;12.80;99.90;;;;;;5011067;28;20448;-63
2023/09/29 06:05:46;;;;;;;5.00;4.17;;;12.90;99.90;;;;;;5011631;28;20826;-64
2023/09/29 06:08:13;;;;;;;6.30;5.67;;;12.90;99.90;;;;;;5011411;28;20458;-64
2023/09/29 06:10:40;;;;;;;5.40;5.00;;;13.00;99.90;;;;;;5011148;28;20814;-63
2023/09/29 06:13:06;;;;;;;6.27;5.67;;;13.00;99.90;;;;;;5008895;28;20829;-63
2023/09/29 06:15:33;;;;;;;8.30;7.60;;;13.10;99.90;;;;;;5010617;28;20536;-64
2023/09/29 06:18:01;;;;;;;6.90;5.93;;;13.20;99.90;;;;;;5010246;28;20491;-64
2023/09/29 06:20:28;;;;;;;5.57;5.07;;;13.20;99.90;;;;;;5010895;28;20452;-63
2023/09/29 06:22:55;;;;;;;6.57;6.07;;;13.30;99.90;;;;;;5010350;28;20450;-64
2023/09/29 06:25:22;;;;;;;5.83;5.23;;;13.40;99.90;;;;;;5010909;28;20501;-63
2023/09/29 06:27:49;;;;;;;6.53;5.93;;;13.50;99.90;;;;;;5010586;28;20456;-64
2023/09/29 06:30:16;;;;;;;6.27;5.77;;;13.50;99.90;;;;;;5010354;28;20557;-64
2023/09/29 06:32:43;;;;;;;5.70;5.23;;;13.60;99.90;;;;;;5010633;28;20530;-63
2023/09/29 06:35:12;;;;;;;6.10;5.27;;;13.70;99.90;;;;;;5011019;28;20448;-64
2023/09/29 06:37:39;;;;;;;5.90;5.40;;;13.70;99.90;;;;;;5010964;28;20562;-64
2023/09/29 06:40:10;;;;;;;5.43;4.93;;;13.70;99.90;;;;;;5011081;28;20530;-64
2023/09/29 06:42:37;;;;;;;5.80;5.40;;;13.80;99.90;;;;;;5011055;28;20456;-63
2023/09/29 06:45:04;;;;;;;6.87;4.90;;;13.90;99.90;;;;;;5010662;28;20443;-64
2023/09/29 06:47:31;;;;;;;6.77;6.00;;;13.90;99.90;;;;;;5012491;28;21049;-63
2023/09/29 06:49:58;;;;;;;7.20;5.50;;;14.00;99.90;;;;;;5014975;28;20453;-64
2023/09/29 06:52:26;;;;;;;5.60;5.10;;;14.00;99.90;;;;;;5014857;28;20456;-63
2023/09/29 06:54:53;;;;;;;7.30;4.70;;;14.10;99.90;;;;;;5012735;28;20452;-64
2023/09/29 06:57:20;;;;;;;5.70;5.00;;;14.10;99.90;;;;;;5013509;28;20495;-63
2023/09/29 06:59:48;;;;;;;5.87;5.47;;;14.10;99.90;;;;;;5014241;28;20462;-64
2023/09/29 07:02:15;;;;;;;5.17;4.40;;;14.20;99.90;;;;;;5014418;28;20452;-64
2023/09/29 07:04:41;;;;;;;5.83;5.13;;;14.20;99.90;;;;;;5013985;28;20532;-63
2023/09/29 07:07:08;;;;;;;5.47;4.33;;;14.30;99.90;;;;;;5014089;28;20467;-63
2023/09/29 07:09:38;;;;;;;6.77;4.80;;;14.30;99.90;;;;;;5014430;28;20486;-64
2023/09/29 07:12:06;;;;;;;5.40;4.90;;;14.40;99.90;;;;;;5014061;28;20453;-64
2023/09/29 07:14:33;;;;;;;5.13;4.83;;;14.40;99.90;;;;;;5014046;28;20444;-64
2023/09/29 07:17:00;;;;;;;5.80;5.20;;;14.40;99.90;;;;;;5014028;28;20867;-64
2023/09/29 07:19:28;;;;;;;4.63;4.23;;;14.50;99.90;;;;;;5014096;28;20452;-63
2023/09/29 07:21:54;;;;;;;5.03;4.57;;;14.50;99.90;;;;;;5013961;28;20448;-63
2023/09/29 07:24:21;;;;;;;5.50;5.00;;;14.60;99.90;;;;;;5013664;28;20453;-63
2023/09/29 07:26:49;;;;;;;5.53;5.00;;;14.70;99.90;;;;;;5013760;28;20464;-64
2023/09/29 07:29:16;;;;;;;5.60;5.10;;;14.70;99.90;;;;;;5013849;28;20934;-64
2023/09/29 07:31:47;;;;;;;4.93;4.53;;;14.70;99.90;;;;;;5014102;28;20462;-64
2023/09/29 07:34:15;;;;;;;5.10;4.63;;;14.80;99.90;;;;;;5013782;28;20462;-64
2023/09/29 07:36:43;;;;;;;5.20;4.73;;;14.80;99.90;;;;;;5013809;28;20501;-64
2023/09/29 07:39:11;;;;;;;5.97;5.37;;;14.90;99.90;;;;;;5013506;28;20539;-64
2023/09/29 07:41:38;;;;;;;6.43;5.60;;;14.90;99.90;;;;;;5013704;28;20831;-65
2023/09/29 07:44:08;;;;;;;6.30;5.90;;;15.00;99.90;;;;;;5013191;28;20456;-64
2023/09/29 07:46:35;;;;;;;7.07;6.30;;;15.10;99.90;;;;;;5013993;28;20447;-64
2023/09/29 07:49:02;;;;;;;6.43;6.00;;;15.20;99.90;;;;;;5013670;28;20454;-65
2023/09/29 07:51:29;;;;;;;6.60;5.83;;;15.30;99.90;;;;;;5013691;28;20521;-64
2023/09/29 07:53:57;;;;;;;6.60;6.00;;;15.40;99.90;;;;;;5013519;28;20527;-64
2023/09/29 07:56:23;;;;;;;6.77;6.17;;;15.60;99.90;;;;;;5013808;28;20448;-64
2023/09/29 07:58:51;;;;;;;8.60;7.90;;;15.70;99.90;;;;;;5012229;28;20527;-64
2023/09/29 08:01:19;;;;;;;6.90;6.30;;;15.90;99.90;;;;;;5013682;28;20535;-65
2023/09/29 08:03:46;;;;;;;10.37;8.03;;;16.00;99.90;;;;;;5013200;28;20458;-65
2023/09/29 08:06:14;;;;;;;6.80;6.23;;;16.10;99.90;;;;;;5013115;28;20525;-64
2023/09/29 08:08:40;;;;;;;9.70;6.60;;;16.30;99.90;;;;;;5013354;28;20464;-64
2023/09/29 08:11:07;;;;;;;9.77;6.97;;;16.40;99.90;;;;;;5013516;28;20547;-64
2023/09/29 08:13:34;;;;;;;10.77;6.47;;;16.60;99.90;;;;;;5012771;28;20455;-64
2023/09/29 08:16:01;;;;;;;7.20;6.60;;;16.70;99.90;;;;;;5012789;28;20485;-64
2023/09/29 08:18:29;;;;;;;8.17;7.40;;;16.90;99.90;;;;;;5012754;28;20499;-64
2023/09/29 08:20:56;;;;;;;7.60;6.83;;;17.00;99.90;;;;;;5013037;28;20555;-65
2023/09/29 08:23:23;;;;;;;6.60;6.00;;;17.10;99.90;;;;;;5012899;28;20451;-65
2023/09/29 08:25:50;;;;;;;7.50;6.87;;;17.30;99.90;;;;;;5013035;28;20535;-64
2023/09/29 08:28:17;;;;;;;7.47;6.77;;;17.40;99.90;;;;;;5012740;28;21009;-64
2023/09/29 08:30:43;;;;;;;7.17;6.50;;;17.50;99.90;;;;;;5012774;28;20447;-65
2023/09/29 08:33:11;;;;;;;6.63;5.83;;;17.60;99.90;;;;;;5012231;28;20881;-64
2023/09/29 08:35:39;;;;;;;6.70;6.20;;;17.70;99.90;;;;;;5012758;28;21184;-65
2023/09/29 08:38:06;;;;;;;8.00;5.87;;;17.70;99.90;;;;;;5012517;28;20493;-64
2023/09/29 08:40:37;;;;;;;6.43;6.03;;;17.80;99.90;;;;;;5012241;28;20947;-64
2023/09/29 08:43:06;;;;;;;6.20;5.60;;;17.80;99.90;;;;;;5012290;28;20825;-65
2023/09/29 08:45:33;;;;;;;5.80;5.30;;;17.90;99.90;;;;;;5012607;28;20484;-65
2023/09/29 08:48:03;;;;;;;5.20;4.80;;;17.90;99.90;;;;;;5012252;28;20552;-64
2023/09/29 08:50:29;;;;;;;6.40;5.80;;;18.00;99.90;;;;;;5012660;28;20801;-64
2023/09/29 08:52:59;;;;;;;5.53;5.07;;;18.20;99.90;;;;;;5012153;28;20453;-64
2023/09/29 08:55:28;;;;;;;6.53;4.93;;;18.30;99.90;;;;;;5012786;28;20849;-64
2023/09/29 08:57:55;;;;;;;5.53;5.03;;;18.40;99.90;;;;;;5012027;28;21054;-64
2023/09/29 09:00:23;;;;;;;8.43;5.33;;;18.60;99.90;;;;;;5012190;28;20537;-65
2023/09/29 09:02:50;;;;;;;8.07;5.80;;;18.80;99.90;;;;;;5012235;28;20453;-65
2023/09/29 09:05:17;;;;;;;7.53;5.73;;;18.90;99.90;;;;;;5012249;28;20540;-65
2023/09/29 09:07:44;;;;;;;5.40;4.90;;;19.10;99.90;;;;;;5012254;28;21045;-64
2023/09/29 09:10:13;;;;;;;5.40;4.60;;;19.20;99.90;;;;;;5011992;28;20948;-65
2023/09/29 09:12:40;;;;;;;5.40;4.90;;;19.40;99.90;;;;;;5012202;28;20450;-65
2023/09/29 09:15:09;;;;;;;7.50;4.87;;;19.50;99.90;;;;;;5012179;28;20937;-65
2023/09/29 09:17:37;;;;;;;5.80;5.27;;;19.70;99.90;;;;;;5011862;28;20494;-65
2023/09/29 09:20:04;;;;;;;6.53;6.03;;;19.90;99.90;;;;;;5010723;28;20822;-64
2023/09/29 09:22:33;;;;;;;5.53;5.13;;;20.00;99.90;;;;;;5011407;28;20539;-65
2023/09/29 09:25:01;;;;;;;5.93;4.77;;;20.10;99.90;;;;;;5011447;28;20866;-65
2023/09/29 09:27:39;;;;;;;5.80;4.90;;;20.30;99.90;;;;;;5010322;28;21025;-65
2023/09/29 09:30:06;;;;;;;5.57;5.07;;;20.40;99.90;;;;;;5011426;28;20442;-64
2023/09/29 09:32:33;;;;;;;6.77;4.80;;;20.60;99.90;;;;;;5010929;28;20529;-64
2023/09/29 09:35:00;;;;;;;6.47;4.90;;;20.70;99.90;;;;;;5009989;28;20444;-65
2023/09/29 09:37:28;;;;;;;4.07;3.67;;;20.80;99.90;;;;;;5011109;28;20491;-65
2023/09/29 09:39:56;;;;;;;4.80;4.40;;;20.90;99.90;;;;;;5011721;28;20539;-65
2023/09/29 09:42:26;;;;;;;7.57;5.17;;;21.10;99.90;;;;;;5011310;28;20456;-65
2023/09/29 09:44:56;;;;;;;6.17;5.57;;;21.30;99.90;;;;;;5011302;28;20538;-65
2023/09/29 09:47:26;;;;;;;7.17;6.10;;;21.50;99.90;;;;;;5011322;28;20528;-65
2023/09/29 09:49:56;;;;;;;6.53;5.17;;;21.70;99.90;;;;;;5011452;28;20463;-66
2023/09/29 09:52:26;;;;;;;6.27;5.07;;;21.80;99.90;;;;;;5010996;28;20446;-65
2023/09/29 09:54:54;;;;;;;7.70;6.63;;;21.90;99.90;;;;;;5011282;28;20454;-64
2023/09/29 09:57:25;;;;;;;6.20;5.63;;;22.00;99.90;;;;;;5011189;28;20481;-65
2023/09/29 09:59:56;;;;;;;5.33;4.83;;;22.00;99.90;;;;;;5011119;28;20449;-65
2023/09/29 10:02:23;;;;;;;7.00;4.70;;;22.10;99.90;;;;;;5011233;28;20488;-64
2023/09/29 10:04:51;;;;;;;8.10;5.90;;;22.10;99.90;;;;;;5010740;28;20880;-65
2023/09/29 10:07:20;;;;;;;4.97;4.47;;;22.00;99.90;;;;;;5010698;28;20606;-64
2023/09/29 10:09:49;;;;;;;5.07;4.57;;;22.00;99.90;;;;;;5011352;28;20456;-65
2023/09/29 10:12:27;;;;;;;5.50;5.00;;;22.10;99.90;;;;;;5018559;28;20451;-64
2023/09/29 10:14:56;;;;;;;6.60;5.00;;;22.20;99.90;;;;;;5019062;28;20873;-65
2023/09/29 10:17:23;;;;;;;8.37;5.80;;;22.30;99.90;;;;;;5020357;28;20491;-65
2023/09/29 10:19:54;;;;;;;8.67;5.57;;;22.40;99.90;;;;;;5019536;28;20537;-64
2023/09/29 10:22:28;;;;;;;6.03;5.10;;;22.50;99.90;;;;;;5026800;28;20448;-65
2023/09/29 10:24:59;;;;;;;6.07;5.40;;;22.70;99.90;;;;;;5019928;28;20453;-65
2023/09/29 10:27:32;;;;;;;5.97;5.43;;;22.80;99.90;;;;;;5010959;28;20470;-65
2023/09/29 10:30:16;;;;;;;6.87;5.57;;;23.00;99.90;;;;;;5010796;28;20947;-66
2023/09/29 10:32:43;;;;;;;6.10;5.50;;;23.30;99.90;;;;;;5009153;28;20461;-65
2023/09/29 10:35:18;;;;;;;5.83;5.13;;;23.40;99.90;;;;;;5010312;28;20478;-66
2023/09/29 10:37:49;;;;;;;5.07;4.57;;;23.50;99.90;;;;;;5010953;28;21015;-65
2023/09/29 10:40:25;;;;;;;5.60;5.10;;;23.70;99.90;;;;;;5010423;28;20446;-66
2023/09/29 10:42:56;;;;;;;5.50;4.53;;;23.90;99.90;;;;;;5010326;28;20851;-64
2023/09/29 10:45:30;;;;;;;5.17;4.80;;;24.00;99.90;;;;;;5018762;28;20442;-65
2023/09/29 10:48:02;;;;;;;8.47;7.40;;;24.10;99.90;;;;;;5019672;28;21050;-66
2023/09/29 10:50:29;;;;;;;5.70;5.20;;;24.20;99.90;;;;;;5025601;28;20529;-65
2023/09/29 10:52:56;;;;;;;5.90;5.30;;;24.20;99.90;;;;;;5029709;28;20454;-66
2023/09/29 10:55:23;;;;;;;8.67;4.70;;;24.30;99.90;;;;;;5030191;28;20442;-65
2023/09/29 10:57:51;;;;;;;5.00;4.60;;;24.50;99.90;;;;;;5030344;28;20516;-65
2023/09/29 11:00:19;;;;;;;8.13;5.70;;;24.60;99.90;;;;;;5030163;28;20455;-65
2023/09/29 11:02:49;;;;;;;7.40;6.70;;;24.70;99.90;;;;;;5030017;28;20489;-64
2023/09/29 11:05:16;;;;;;;5.80;5.30;;;24.70;98.50;;;;;;5029895;28;20543;-65
2023/09/29 11:07:47;;;;;;;6.00;4.17;;;24.80;98.90;;;;;;5024220;28;20498;-65
2023/09/29 11:10:15;;;;;;;4.47;4.17;;;24.90;99.10;;;;;;5012720;28;20451;-66
2023/09/29 11:12:46;;;;;;;5.33;4.43;;;25.00;99.00;;;;;;5009267;28;20549;-65
2023/09/29 11:15:14;;;;;;;4.93;4.53;;;25.20;99.00;;;;;;5020871;28;20439;-65
2023/09/29 11:17:47;;;;;;;4.90;4.40;;;25.30;98.50;;;;;;5019607;28;20897;-65
2023/09/29 11:20:25;;;;;;;4.67;4.27;;;25.40;97.30;;;;;;5010012;28;20523;-65
2023/09/29 11:23:01;;;;;;;4.87;4.47;;;25.40;97.00;;;;;;5009946;28;20456;-65
2023/09/29 11:25:28;;;;;;;4.90;4.43;;;25.40;95.70;;;;;;5009984;28;20452;-65
2023/09/29 11:27:56;;;;;;;5.27;4.77;;;25.40;96.80;;;;;;5009785;28;20464;-66
2023/09/29 11:30:24;;;;;;;5.40;4.90;;;25.40;96.90;;;;;;5010676;28;20457;-66
2023/09/29 11:32:53;;;;;;;5.33;4.70;;;25.40;96.80;;;;;;5010191;28;20476;-65
2023/09/29 11:35:21;;;;;;;5.23;4.70;;;25.60;95.80;;;;;;5013140;28;20480;-65
2023/09/29 11:37:48;;;;;;;4.30;4.00;;;25.70;96.10;;;;;;5013159;28;20502;-66
2023/09/29 11:40:16;;;;;;;4.93;4.50;;;25.90;96.10;;;;;;5013036;28;20451;-65
2023/09/29 11:42:45;;;;;;;5.10;4.80;;;26.20;95.30;;;;;;5013094;28;20587;-65
2023/09/29 11:45:12;;;;;;;5.90;5.30;;;26.40;95.60;;;;;;5013239;28;20508;-65
2023/09/29 11:47:40;;;;;;;6.30;4.30;;;26.40;93.70;;;;;;5013212;28;20546;-65
2023/09/29 11:50:09;;;;;;;4.43;3.90;;;26.50;94.40;;;;;;5012948;28;20449;-65
2023/09/29 11:52:39;;;;;;;6.23;4.33;;;26.70;92.20;;;;;;5012769;28;20527;-65
2023/09/29 11:55:08;;;;;;;4.00;3.40;;;26.70;91.50;;;;;;5012967;28;20458;-65
2023/09/29 11:57:37;;;;;;;4.73;3.80;;;26.90;91.40;;;;;;5012786;28;20837;-65
2023/09/29 12:00:08;;;;;;;4.33;4.10;;;27.00;91.10;;;;;;5013073;28;20576;-65
2023/09/29 12:02:35;;;;;;;4.53;4.17;;;27.10;92.00;;;;;;5013002;28;20893;-65
2023/09/29 12:05:01;;;;;;;4.77;4.40;;;27.20;90.60;;;;;;5012561;28;20531;-65
2023/09/29 12:07:31;;;;;;;5.10;4.27;;;27.30;91.00;;;;;;5012908;28;20469;-65
2023/09/29 12:09:58;;;;;;;4.90;4.37;;;27.40;91.00;;;;;;5012202;28;20527;-65
2023/09/29 12:12:25;;;;;;;4.13;3.83;;;27.50;91.40;;;;;;5012501;28;21041;-65
2023/09/29 12:14:52;;;;;;;4.63;4.23;;;27.50;91.20;;;;;;5012329;28;20474;-65
2023/09/29 12:17:19;;;;;;;4.00;3.80;;;27.50;89.60;;;;;;5012378;28;20970;-65
2023/09/29 12:19:46;;;;;;;4.53;3.80;;;27.50;90.10;;;;;;5011843;28;20519;-65
2023/09/29 12:22:13;;;;;;;4.53;4.17;;;27.70;90.40;;;;;;5012557;28;20526;-65
2023/09/29 12:24:42;;;;;;;5.60;4.20;;;27.80;89.80;;;;;;5012018;28;20829;-64
2023/09/29 12:27:09;;;;;;;5.50;4.90;;;27.90;89.20;;;;;;5012688;28;20458;-65
2023/09/29 12:29:35;;;;;;;4.70;4.30;;;28.00;89.80;;;;;;5012619;28;20437;-65
2023/09/29 12:32:03;;;;;;;5.17;4.50;;;28.10;90.70;;;;;;5012337;28;20471;-65
2023/09/29 12:34:32;;;;;;;6.63;4.37;;;28.30;90.60;;;;;;5012001;28;20477;-65
2023/09/29 12:36:59;;;;;;;4.40;4.10;;;28.40;89.20;;;;;;5012119;28;20465;-65
2023/09/29 12:39:26;;;;;;;5.50;4.40;;;28.60;88.90;;;;;;5011769;28;20495;-65
2023/09/29 12:41:55;;;;;;;5.90;4.40;;;28.80;87.80;;;;;;5012178;28;20465;-65
2023/09/29 12:44:22;;;;;;;5.83;4.27;;;28.90;87.50;;;;;;5011228;28;20486;-65
2023/09/29 12:46:50;;;;;;;4.50;4.20;;;29.00;87.40;;;;;;5011988;28;20499;-65
2023/09/29 12:49:17;;;;;;;5.40;4.47;;;29.20;86.90;;;;;;5012058;28;20521;-65
2023/09/29 12:51:44;;;;;;;4.40;4.00;;;29.30;87.90;;;;;;5011905;28;20525;-65